El Bayadh Airport

DAOY · El Bayadh, 阿尔及利亚

罗盘
风向 的 风向 150° El Bayadh Airport 4/22
风: 21 kt, 5 beaufort

6 kt

20 kt
改变
0 ft 6.000 12.000 18.000 24.000 30.000
Cloud Cloud Cloud Cloud
SCT 2.600
Cloud Cloud Cloud Cloud
SCT 23.300
METAR DAOY 191100Z 15021KT 6000 DRSA SCT026 SCT233 32/M00 Q1019

METAR El Bayadh Airport - DAOY/EBH

El Bayadh Airport是,阿尔及利亚中的小机场。 该机场位于纬度33,72184和经度1,09240。 该机场有一条跑道: 4/22. 本场的ICAO机场代码为DAOY。 该机场的IATA代码为EBH。 机场在Alger FIR中。

该航空气象观测是针对El Bayadh Airport在2024年6月19日 12:00, 当地时间进行的。

机场观察

风向为150°,速度为21 kt。

可见度为6 km。

有疏云,零星散落的云朵在2.600 ft的高度 和 疏云,零星散落的云朵在23.300 ft的高度。 没有观察到天花板。

当前天气为低飘 沙。 温度和风寒是32 °C。 海平面上的气压为1019 hPa (QNH)。

白天

今天,太阳从05:45升起,在20:09降落。 这适用于El Bayadh Airport,世界夏令时可能有所不同。 当地时间与世界标准时间之间的时差为+1 小时。 夏令时目前正在进行中。

公司介绍

我们没有关于这个机场的公司信息。

体会

到Vliegles.nl去找飞行课程,跳伞和其他飞行体验。 浏览页面,了解El Bayadh Airport附近所有可用的活动。 你也可以使用搜索功能来寻找你所在地附近的特定飞行课程、跳伞或其他飞行体验。

跑道

Id 标题 侧风 逆风 侧风 %
4/22 042°-222° 20 kt 6 kt 95 %

逆风成分最大的方向会被突出显示,并用于横风计算。 这并不一定意味着这个方向在使用。

乌云

2.600 ft SCT 疏云,零星散落的云朵
23.300 ft SCT 疏云,零星散落的云朵

温度 & 天气

天气 低飘 沙
温度 32 °C
露点 0 °C
相对湿度 13%
Kp-index 2 (0-9)

白天

日出
05:45
中午
12:57
日落
20:09 (7:20)

小工具

你想在你的网站上有一个关于El Bayadh Airport的当前航空天气(METAR)的小部件吗?

显示HTML代码
报告变更